sensor_id;sensor_type;location;lat;lon;timestamp;pressure;altitude;pressure_sealevel;temperature
77728;BMP280;68312;53.502;10.030;2023-07-30T00:02:14;100898.41;;;16.07
77728;BMP280;68312;53.502;10.030;2023-07-30T00:04:40;100904.88;;;16.09
77728;BMP280;68312;53.502;10.030;2023-07-30T00:07:05;100916.97;;;16.07
77728;BMP280;68312;53.502;10.030;2023-07-30T00:09:30;100912.44;;;16.07
77728;BMP280;68312;53.502;10.030;2023-07-30T00:11:56;100908.63;;;16.08
77728;BMP280;68312;53.502;10.030;2023-07-30T00:14:21;100915.09;;;16.07
77728;BMP280;68312;53.502;10.030;2023-07-30T00:16:47;100923.34;;;16.06
77728;BMP280;68312;53.502;10.030;2023-07-30T00:19:12;100933.28;;;16.08
77728;BMP280;68312;53.502;10.030;2023-07-30T00:21:37;100921.22;;;16.11
77728;BMP280;68312;53.502;10.030;2023-07-30T00:24:03;100915.56;;;16.12
77728;BMP280;68312;53.502;10.030;2023-07-30T00:26:29;100910.31;;;16.16
77728;BMP280;68312;53.502;10.030;2023-07-30T00:28:55;100905.78;;;16.16
77728;BMP280;68312;53.502;10.030;2023-07-30T00:31:20;100897.06;;;16.16
77728;BMP280;68312;53.502;10.030;2023-07-30T00:33:45;100898.63;;;16.17
77728;BMP280;68312;53.502;10.030;2023-07-30T00:36:35;100916.47;;;16.20
77728;BMP280;68312;53.502;10.030;2023-07-30T00:39:00;100905.88;;;16.20
77728;BMP280;68312;53.502;10.030;2023-07-30T00:41:26;100906.28;;;16.22
77728;BMP280;68312;53.502;10.030;2023-07-30T00:43:51;100902.50;;;16.23
77728;BMP280;68312;53.502;10.030;2023-07-30T00:46:16;100897.63;;;16.25
77728;BMP280;68312;53.502;10.030;2023-07-30T00:48:42;100891.56;;;16.24
77728;BMP280;68312;53.502;10.030;2023-07-30T00:51:09;100888.16;;;16.24
77728;BMP280;68312;53.502;10.030;2023-07-30T00:53:38;100889.25;;;16.23
77728;BMP280;68312;53.502;10.030;2023-07-30T00:56:03;100874.50;;;16.22
77728;BMP280;68312;53.502;10.030;2023-07-30T00:58:29;100888.44;;;16.19
77728;BMP280;68312;53.502;10.030;2023-07-30T01:00:56;100891.78;;;16.16
77728;BMP280;68312;53.502;10.030;2023-07-30T01:03:22;100896.66;;;16.14
77728;BMP280;68312;53.502;10.030;2023-07-30T01:05:47;100892.47;;;16.13
77728;BMP280;68312;53.502;10.030;2023-07-30T01:08:13;100899.72;;;16.16
77728;BMP280;68312;53.502;10.030;2023-07-30T01:10:40;100896.25;;;16.12
77728;BMP280;68312;53.502;10.030;2023-07-30T01:13:08;100895.81;;;16.10
77728;BMP280;68312;53.502;10.030;2023-07-30T01:15:35;100885.94;;;16.07
77728;BMP280;68312;53.502;10.030;2023-07-30T01:18:02;100889.97;;;16.01
77728;BMP280;68312;53.502;10.030;2023-07-30T01:20:31;100893.31;;;15.98
77728;BMP280;68312;53.502;10.030;2023-07-30T01:22:58;100899.28;;;15.95
77728;BMP280;68312;53.502;10.030;2023-07-30T01:25:28;100896.91;;;15.90
77728;BMP280;68312;53.502;10.030;2023-07-30T01:28:00;100908.22;;;15.87
77728;BMP280;68312;53.502;10.030;2023-07-30T01:30:29;100897.53;;;15.84
77728;BMP280;68312;53.502;10.030;2023-07-30T01:32:57;100907.97;;;15.77
77728;BMP280;68312;53.502;10.030;2023-07-30T01:35:27;100909.69;;;15.70
77728;BMP280;68312;53.502;10.030;2023-07-30T01:37:54;100914.84;;;15.63
77728;BMP280;68312;53.502;10.030;2023-07-30T01:40:21;100920.31;;;15.54
77728;BMP280;68312;53.502;10.030;2023-07-30T01:42:46;100933.84;;;15.50
77728;BMP280;68312;53.502;10.030;2023-07-30T01:45:13;100919.81;;;15.49
77728;BMP280;68312;53.502;10.030;2023-07-30T01:47:39;100913.31;;;15.47
77728;BMP280;68312;53.502;10.030;2023-07-30T01:50:04;100921.69;;;15.49
77728;BMP280;68312;53.502;10.030;2023-07-30T01:52:30;100916.75;;;15.47
77728;BMP280;68312;53.502;10.030;2023-07-30T01:54:55;100905.38;;;15.47
77728;BMP280;68312;53.502;10.030;2023-07-30T01:57:23;100905.75;;;15.45
77728;BMP280;68312;53.502;10.030;2023-07-30T01:59:48;100903.75;;;15.42
77728;BMP280;68312;53.502;10.030;2023-07-30T02:02:14;100909.91;;;15.46
77728;BMP280;68312;53.502;10.030;2023-07-30T02:04:39;100903.09;;;15.45
77728;BMP280;68312;53.502;10.030;2023-07-30T02:07:05;100905.75;;;15.45
77728;BMP280;68312;53.502;10.030;2023-07-30T02:09:30;100896.25;;;15.44
77728;BMP280;68312;53.502;10.030;2023-07-30T02:11:55;100891.72;;;15.45
77728;BMP280;68312;53.502;10.030;2023-07-30T02:14:21;100900.47;;;15.45
77728;BMP280;68312;53.502;10.030;2023-07-30T02:16:46;100903.31;;;15.40
77728;BMP280;68312;53.502;10.030;2023-07-30T02:19:12;100894.13;;;15.34
77728;BMP280;68312;53.502;10.030;2023-07-30T02:21:37;100906.88;;;15.29
77728;BMP280;68312;53.502;10.030;2023-07-30T02:24:07;100904.91;;;15.26
77728;BMP280;68312;53.502;10.030;2023-07-30T02:26:35;100905.97;;;15.25
77728;BMP280;68312;53.502;10.030;2023-07-30T02:29:01;100913.84;;;15.22
77728;BMP280;68312;53.502;10.030;2023-07-30T02:31:26;100902.75;;;15.16
77728;BMP280;68312;53.502;10.030;2023-07-30T02:33:52;100907.97;;;15.13
77728;BMP280;68312;53.502;10.030;2023-07-30T02:36:17;100909.41;;;15.10
77728;BMP280;68312;53.502;10.030;2023-07-30T02:38:43;100914.69;;;15.10
77728;BMP280;68312;53.502;10.030;2023-07-30T02:41:08;100913.16;;;15.09
77728;BMP280;68312;53.502;10.030;2023-07-30T02:44:04;100904.03;;;15.07
77728;BMP280;68312;53.502;10.030;2023-07-30T02:46:30;100916.50;;;15.06
77728;BMP280;68312;53.502;10.030;2023-07-30T02:48:55;100906.19;;;15.01
77728;BMP280;68312;53.502;10.030;2023-07-30T02:51:20;100917.53;;;15.02
77728;BMP280;68312;53.502;10.030;2023-07-30T02:53:46;100919.28;;;14.98
77728;BMP280;68312;53.502;10.030;2023-07-30T02:56:11;100924.31;;;14.88
77728;BMP280;68312;53.502;10.030;2023-07-30T02:58:36;100921.50;;;14.96
77728;BMP280;68312;53.502;10.030;2023-07-30T03:01:08;100929.84;;;14.98
77728;BMP280;68312;53.502;10.030;2023-07-30T03:03:34;100928.38;;;14.97
77728;BMP280;68312;53.502;10.030;2023-07-30T03:06:00;100920.44;;;14.97
77728;BMP280;68312;53.502;10.030;2023-07-30T03:08:25;100936.28;;;14.97
77728;BMP280;68312;53.502;10.030;2023-07-30T03:10:51;100931.88;;;15.01
77728;BMP280;68312;53.502;10.030;2023-07-30T03:13:16;100931.59;;;15.06
77728;BMP280;68312;53.502;10.030;2023-07-30T03:15:41;100932.53;;;15.13
77728;BMP280;68312;53.502;10.030;2023-07-30T03:18:07;100927.44;;;15.20
77728;BMP280;68312;53.502;10.030;2023-07-30T03:20:32;100932.81;;;15.24
77728;BMP280;68312;53.502;10.030;2023-07-30T03:22:58;100927.88;;;15.22
77728;BMP280;68312;53.502;10.030;2023-07-30T03:25:23;100937.84;;;15.28
77728;BMP280;68312;53.502;10.030;2023-07-30T03:27:48;100935.44;;;15.24
77728;BMP280;68312;53.502;10.030;2023-07-30T03:30:14;100931.69;;;15.24
77728;BMP280;68312;53.502;10.030;2023-07-30T03:32:40;100932.72;;;15.20
77728;BMP280;68312;53.502;10.030;2023-07-30T03:35:06;100937.66;;;15.22
77728;BMP280;68312;53.502;10.030;2023-07-30T03:37:31;100932.44;;;15.25
77728;BMP280;68312;53.502;10.030;2023-07-30T03:39:57;100943.91;;;15.29
77728;BMP280;68312;53.502;10.030;2023-07-30T03:42:22;100935.63;;;15.30
77728;BMP280;68312;53.502;10.030;2023-07-30T03:44:47;100936.75;;;15.29
77728;BMP280;68312;53.502;10.030;2023-07-30T03:47:13;100935.63;;;15.30
77728;BMP280;68312;53.502;10.030;2023-07-30T03:49:41;100943.91;;;15.29
77728;BMP280;68312;53.502;10.030;2023-07-30T03:52:07;100941.50;;;15.24
77728;BMP280;68312;53.502;10.030;2023-07-30T03:54:32;100944.06;;;15.21
77728;BMP280;68312;53.502;10.030;2023-07-30T03:56:57;100945.41;;;15.15
77728;BMP280;68312;53.502;10.030;2023-07-30T03:59:23;100947.22;;;15.11
77728;BMP280;68312;53.502;10.030;2023-07-30T04:01:49;100948.66;;;15.08
77728;BMP280;68312;53.502;10.030;2023-07-30T04:04:18;100953.94;;;15.08
77728;BMP280;68312;53.502;10.030;2023-07-30T04:06:43;100950.44;;;15.04
77728;BMP280;68312;53.502;10.030;2023-07-30T04:09:09;100950.78;;;15.03
77728;BMP280;68312;53.502;10.030;2023-07-30T04:11:34;100954.56;;;15.02
77728;BMP280;68312;53.502;10.030;2023-07-30T04:13:59;100960.25;;;15.04
77728;BMP280;68312;53.502;10.030;2023-07-30T04:16:25;100958.81;;;15.06
77728;BMP280;68312;53.502;10.030;2023-07-30T04:18:50;100949.41;;;15.09
77728;BMP280;68312;53.502;10.030;2023-07-30T04:21:16;100952.75;;;15.06
77728;BMP280;68312;53.502;10.030;2023-07-30T04:23:41;100959.69;;;15.10
77728;BMP280;68312;53.502;10.030;2023-07-30T04:26:06;100956.25;;;15.10
77728;BMP280;68312;53.502;10.030;2023-07-30T04:28:32;100950.97;;;15.10
77728;BMP280;68312;53.502;10.030;2023-07-30T04:30:58;100952.44;;;15.07
77728;BMP280;68312;53.502;10.030;2023-07-30T04:33:23;100946.34;;;15.07
77728;BMP280;68312;53.502;10.030;2023-07-30T04:35:49;100950.97;;;15.10
77728;BMP280;68312;53.502;10.030;2023-07-30T04:38:14;100956.25;;;15.10
77728;BMP280;68312;53.502;10.030;2023-07-30T04:40:42;100960.44;;;15.11
77728;BMP280;68312;53.502;10.030;2023-07-30T04:43:08;100965.72;;;15.11
77728;BMP280;68312;53.502;10.030;2023-07-30T04:45:33;100972.59;;;15.12
77728;BMP280;68312;53.502;10.030;2023-07-30T04:47:58;100972.59;;;15.12
77728;BMP280;68312;53.502;10.030;2023-07-30T04:50:24;100972.31;;;15.17
77728;BMP280;68312;53.502;10.030;2023-07-30T04:52:49;100970.19;;;15.22
77728;BMP280;68312;53.502;10.030;2023-07-30T04:55:15;100972.25;;;15.28
77728;BMP280;68312;53.502;10.030;2023-07-30T04:57:40;100969.34;;;15.33
77728;BMP280;68312;53.502;10.030;2023-07-30T05:00:06;100968.41;;;15.41
77728;BMP280;68312;53.502;10.030;2023-07-30T05:02:32;100967.88;;;15.51
77728;BMP280;68312;53.502;10.030;2023-07-30T05:04:57;100966.50;;;15.57
77728;BMP280;68312;53.502;10.030;2023-07-30T05:07:23;100964.38;;;15.62
77728;BMP280;68312;53.502;10.030;2023-07-30T05:09:48;100964.13;;;15.67
77728;BMP280;68312;53.502;10.030;2023-07-30T05:12:36;100956.00;;;15.76
77728;BMP280;68312;53.502;10.030;2023-07-30T05:15:02;100957.28;;;15.81
77728;BMP280;68312;53.502;10.030;2023-07-30T05:17:28;100950.94;;;15.86
77728;BMP280;68312;53.502;10.030;2023-07-30T05:19:55;100955.59;;;15.92
77728;BMP280;68312;53.502;10.030;2023-07-30T05:22:20;100958.69;;;15.94
77728;BMP280;68312;53.502;10.030;2023-07-30T05:24:45;100963.72;;;15.99
77728;BMP280;68312;53.502;10.030;2023-07-30T05:27:11;100965.44;;;16.07
77728;BMP280;68312;53.502;10.030;2023-07-30T05:29:36;100966.28;;;16.11
77728;BMP280;68312;53.502;10.030;2023-07-30T05:32:02;100964.16;;;16.20
77728;BMP280;68312;53.502;10.030;2023-07-30T05:34:27;100962.03;;;16.25
77728;BMP280;68312;53.502;10.030;2023-07-30T05:36:52;100956.44;;;16.30
77728;BMP280;68312;53.502;10.030;2023-07-30T05:39:18;100951.91;;;16.31
77728;BMP280;68312;53.502;10.030;2023-07-30T05:41:43;100953.50;;;16.35
77728;BMP280;68312;53.502;10.030;2023-07-30T05:44:08;100953.56;;;16.38
77728;BMP280;68312;53.502;10.030;2023-07-30T05:46:34;100956.72;;;16.44
77728;BMP280;68312;53.502;10.030;2023-07-30T05:48:59;100956.44;;;16.49
77728;BMP280;68312;53.502;10.030;2023-07-30T05:54:28;100951.34;;;16.59
77728;BMP280;68312;53.502;10.030;2023-07-30T05:56:53;100945.41;;;16.65
77728;BMP280;68312;53.502;10.030;2023-07-30T05:59:19;100950.31;;;16.67
77728;BMP280;68312;53.502;10.030;2023-07-30T06:01:45;100953.16;;;16.74
77728;BMP280;68312;53.502;10.030;2023-07-30T06:04:10;100959.28;;;16.78
77728;BMP280;68312;53.502;10.030;2023-07-30T06:07:09;100960.47;;;16.80
77728;BMP280;68312;53.502;10.030;2023-07-30T06:09:35;100960.63;;;16.90
77728;BMP280;68312;53.502;10.030;2023-07-30T06:12:01;100961.97;;;17.00
77728;BMP280;68312;53.502;10.030;2023-07-30T06:14:26;100964.38;;;17.08
77728;BMP280;68312;53.502;10.030;2023-07-30T06:16:52;100958.19;;;17.23
77728;BMP280;68312;53.502;10.030;2023-07-30T06:19:19;100959.72;;;17.24
77728;BMP280;68312;53.502;10.030;2023-07-30T06:21:44;100958.38;;;17.33
77728;BMP280;68312;53.502;10.030;2023-07-30T06:24:10;100966.78;;;17.39
77728;BMP280;68312;53.502;10.030;2023-07-30T06:26:35;100968.00;;;17.44
77728;BMP280;68312;53.502;10.030;2023-07-30T06:29:01;100961.59;;;17.45
77728;BMP280;68312;53.502;10.030;2023-07-30T06:31:26;100961.06;;;17.37
77728;BMP280;68312;53.502;10.030;2023-07-30T06:33:52;100966.97;;;17.52
77728;BMP280;68312;53.502;10.030;2023-07-30T06:36:17;100964.84;;;17.61
77728;BMP280;68312;53.502;10.030;2023-07-30T06:38:43;100967.19;;;17.66
77728;BMP280;68312;53.502;10.030;2023-07-30T06:41:08;100959.03;;;17.78
77728;BMP280;68312;53.502;10.030;2023-07-30T06:43:33;100959.84;;;17.82
77728;BMP280;68312;53.502;10.030;2023-07-30T06:45:59;100970.19;;;17.90
77728;BMP280;68312;53.502;10.030;2023-07-30T06:48:25;100952.78;;;17.93
77728;BMP280;68312;53.502;10.030;2023-07-30T06:50:50;100954.31;;;17.93
77728;BMP280;68312;53.502;10.030;2023-07-30T06:53:15;100962.06;;;18.05
77728;BMP280;68312;53.502;10.030;2023-07-30T06:55:41;100965.72;;;18.23
77728;BMP280;68312;53.502;10.030;2023-07-30T06:58:06;100975.28;;;18.31
77728;BMP280;68312;53.502;10.030;2023-07-30T07:00:31;100960.69;;;18.18
77728;BMP280;68312;53.502;10.030;2023-07-30T07:02:57;100965.28;;;18.21
77728;BMP280;68312;53.502;10.030;2023-07-30T07:08:44;100969.31;;;18.73
77728;BMP280;68312;53.502;10.030;2023-07-30T07:11:09;100968.88;;;18.68
77728;BMP280;68312;53.502;10.030;2023-07-30T07:13:34;100962.38;;;18.65
77728;BMP280;68312;53.502;10.030;2023-07-30T07:16:00;100969.16;;;18.59
77728;BMP280;68312;53.502;10.030;2023-07-30T07:18:25;100976.41;;;18.62
77728;BMP280;68312;53.502;10.030;2023-07-30T07:24:31;100972.53;;;18.92
77728;BMP280;68312;53.502;10.030;2023-07-30T07:26:57;100983.75;;;19.15
77728;BMP280;68312;53.502;10.030;2023-07-30T07:29:22;100976.28;;;19.34
77728;BMP280;68312;53.502;10.030;2023-07-30T07:31:48;100974.22;;;19.63
77728;BMP280;68312;53.502;10.030;2023-07-30T07:34:14;100968.84;;;19.56
77728;BMP280;68312;53.502;10.030;2023-07-30T07:36:40;100974.97;;;19.60
77728;BMP280;68312;53.502;10.030;2023-07-30T07:39:05;100973.53;;;19.73
77728;BMP280;68312;53.502;10.030;2023-07-30T07:41:31;100969.81;;;19.98
77728;BMP280;68312;53.502;10.030;2023-07-30T07:43:57;100975.44;;;19.79
77728;BMP280;68312;53.502;10.030;2023-07-30T07:46:23;100974.38;;;19.94
77728;BMP280;68312;53.502;10.030;2023-07-30T07:48:49;100974.81;;;20.00
77728;BMP280;68312;53.502;10.030;2023-07-30T07:51:15;100964.97;;;20.17
77728;BMP280;68312;53.502;10.030;2023-07-30T07:53:40;100965.34;;;20.19
77728;BMP280;68312;53.502;10.030;2023-07-30T07:56:06;100966.53;;;20.35
77728;BMP280;68312;53.502;10.030;2023-07-30T07:58:31;100971.84;;;20.32
77728;BMP280;68312;53.502;10.030;2023-07-30T08:00:58;100961.66;;;20.65
77728;BMP280;68312;53.502;10.030;2023-07-30T08:03:24;100969.28;;;20.97
77728;BMP280;68312;53.502;10.030;2023-07-30T08:05:52;100958.59;;;20.90
77728;BMP280;68312;53.502;10.030;2023-07-30T08:08:17;100963.94;;;20.80
77728;BMP280;68312;53.502;10.030;2023-07-30T08:10:43;100968.47;;;20.55
77728;BMP280;68312;53.502;10.030;2023-07-30T08:13:10;100962.69;;;20.26
77728;BMP280;68312;53.502;10.030;2023-07-30T08:15:35;100966.22;;;21.05
77728;BMP280;68312;53.502;10.030;2023-07-30T08:18:01;100965.41;;;21.39
77728;BMP280;68312;53.502;10.030;2023-07-30T08:20:26;100964.66;;;21.39
77728;BMP280;68312;53.502;10.030;2023-07-30T08:22:52;100955.50;;;21.33
77728;BMP280;68312;53.502;10.030;2023-07-30T08:25:17;100962.38;;;21.20
77728;BMP280;68312;53.502;10.030;2023-07-30T08:27:42;100958.19;;;21.36
77728;BMP280;68312;53.502;10.030;2023-07-30T08:30:08;100951.47;;;21.92
77728;BMP280;68312;53.502;10.030;2023-07-30T08:32:34;100940.38;;;22.57
77728;BMP280;68312;53.502;10.030;2023-07-30T08:35:00;100939.31;;;22.95
77728;BMP280;68312;53.502;10.030;2023-07-30T08:37:26;100945.31;;;23.42
77728;BMP280;68312;53.502;10.030;2023-07-30T08:39:52;100936.53;;;24.23
77728;BMP280;68312;53.502;10.030;2023-07-30T08:42:17;100929.47;;;25.38
77728;BMP280;68312;53.502;10.030;2023-07-30T08:44:43;100932.63;;;26.02
77728;BMP280;68312;53.502;10.030;2023-07-30T08:47:08;100926.03;;;25.37
77728;BMP280;68312;53.502;10.030;2023-07-30T08:49:35;100938.78;;;24.50
77728;BMP280;68312;53.502;10.030;2023-07-30T08:52:02;100935.53;;;24.13
77728;BMP280;68312;53.502;10.030;2023-07-30T08:54:30;100941.09;;;24.00
77728;BMP280;68312;53.502;10.030;2023-07-30T08:56:57;100943.81;;;23.05
77728;BMP280;68312;53.502;10.030;2023-07-30T08:59:24;100943.59;;;22.39
77728;BMP280;68312;53.502;10.030;2023-07-30T09:01:52;100957.03;;;21.44
77728;BMP280;68312;53.502;10.030;2023-07-30T09:04:19;100961.28;;;20.94
77728;BMP280;68312;53.502;10.030;2023-07-30T09:06:49;100963.56;;;20.71
77728;BMP280;68312;53.502;10.030;2023-07-30T09:09:15;100964.69;;;20.70
77728;BMP280;68312;53.502;10.030;2023-07-30T09:11:40;100963.53;;;21.26
77728;BMP280;68312;53.502;10.030;2023-07-30T09:14:06;100969.69;;;21.03
77728;BMP280;68312;53.502;10.030;2023-07-30T09:16:32;100961.66;;;20.65
77728;BMP280;68312;53.502;10.030;2023-07-30T09:18:58;100971.94;;;20.70
77728;BMP280;68312;53.502;10.030;2023-07-30T09:21:33;100967.78;;;21.06
77728;BMP280;68312;53.502;10.030;2023-07-30T09:24:03;100963.09;;;21.55
77728;BMP280;68312;53.502;10.030;2023-07-30T09:26:42;100958.63;;;22.19
77728;BMP280;68312;53.502;10.030;2023-07-30T09:29:10;100963.81;;;21.76
77728;BMP280;68312;53.502;10.030;2023-07-30T09:31:54;100964.03;;;22.12
77728;BMP280;68312;53.502;10.030;2023-07-30T09:34:21;100966.72;;;21.99
77728;BMP280;68312;53.502;10.030;2023-07-30T09:36:50;100965.25;;;21.87
77728;BMP280;68312;53.502;10.030;2023-07-30T09:39:19;100969.56;;;21.64
77728;BMP280;68312;53.502;10.030;2023-07-30T09:41:50;100966.41;;;21.93
77728;BMP280;68312;53.502;10.030;2023-07-30T09:44:18;100974.44;;;21.93
77728;BMP280;68312;53.502;10.030;2023-07-30T09:46:49;100968.41;;;21.65
77728;BMP280;68312;53.502;10.030;2023-07-30T09:49:15;100973.84;;;21.14
77728;BMP280;68312;53.502;10.030;2023-07-30T09:51:45;100971.19;;;21.31
77728;BMP280;68312;53.502;10.030;2023-07-30T09:54:14;100975.22;;;21.90
77728;BMP280;68312;53.502;10.030;2023-07-30T09:56:41;100969.69;;;22.21
77728;BMP280;68312;53.502;10.030;2023-07-30T09:59:08;100965.09;;;22.22
77728;BMP280;68312;53.502;10.030;2023-07-30T10:01:46;100960.06;;;23.24
77728;BMP280;68312;53.502;10.030;2023-07-30T10:04:15;100969.59;;;22.88
77728;BMP280;68312;53.502;10.030;2023-07-30T10:06:50;100987.34;;;22.12
77728;BMP280;68312;53.502;10.030;2023-07-30T10:09:21;100977.44;;;22.02
77728;BMP280;68312;53.502;10.030;2023-07-30T10:11:52;100984.84;;;21.50
77728;BMP280;68312;53.502;10.030;2023-07-30T10:14:21;100990.28;;;21.23
77728;BMP280;68312;53.502;10.030;2023-07-30T10:16:56;100987.19;;;21.45
77728;BMP280;68312;53.502;10.030;2023-07-30T10:19:25;100984.88;;;21.54
77728;BMP280;68312;53.502;10.030;2023-07-30T10:25:04;100984.53;;;21.21
77728;BMP280;68312;53.502;10.030;2023-07-30T10:27:40;101006.16;;;21.91
77728;BMP280;68312;53.502;10.030;2023-07-30T10:30:15;101006.78;;;22.19
77728;BMP280;68312;53.502;10.030;2023-07-30T10:33:00;100999.88;;;22.29
77728;BMP280;68312;53.502;10.030;2023-07-30T10:35:43;100992.97;;;22.31
77728;BMP280;68312;53.502;10.030;2023-07-30T10:38:19;101009.03;;;22.31
77728;BMP280;68312;53.502;10.030;2023-07-30T10:41:07;101000.22;;;22.34
77728;BMP280;68312;53.502;10.030;2023-07-30T10:43:50;101001.09;;;22.14
77728;BMP280;68312;53.502;10.030;2023-07-30T10:46:17;101007.44;;;21.53
77728;BMP280;68312;53.502;10.030;2023-07-30T10:48:45;101015.09;;;21.23
77728;BMP280;68312;53.502;10.030;2023-07-30T10:51:14;101006.69;;;21.01
77728;BMP280;68312;53.502;10.030;2023-07-30T10:53:46;101017.72;;;20.72
77728;BMP280;68312;53.502;10.030;2023-07-30T10:56:38;101015.75;;;20.62
77728;BMP280;68312;53.502;10.030;2023-07-30T10:59:05;101008.94;;;20.71
77728;BMP280;68312;53.502;10.030;2023-07-30T11:01:36;101016.63;;;21.04
77728;BMP280;68312;53.502;10.030;2023-07-30T11:04:23;101012.03;;;21.28
77728;BMP280;68312;53.502;10.030;2023-07-30T11:06:50;101012.72;;;21.63
77728;BMP280;68312;53.502;10.030;2023-07-30T11:09:23;101006.25;;;21.60
77728;BMP280;68312;53.502;10.030;2023-07-30T11:11:51;101004.34;;;21.64
77728;BMP280;68312;53.502;10.030;2023-07-30T11:14:25;101001.03;;;22.21
77728;BMP280;68312;53.502;10.030;2023-07-30T11:16:58;100990.31;;;22.31
77728;BMP280;68312;53.502;10.030;2023-07-30T11:19:28;100981.31;;;23.05
77728;BMP280;68312;53.502;10.030;2023-07-30T11:21:56;100985.69;;;23.25
77728;BMP280;68312;53.502;10.030;2023-07-30T11:24:32;100987.91;;;23.33
77728;BMP280;68312;53.502;10.030;2023-07-30T11:27:02;100989.16;;;23.61
77728;BMP280;68312;53.502;10.030;2023-07-30T11:29:28;100985.16;;;24.02
77728;BMP280;68312;53.502;10.030;2023-07-30T11:31:56;100974.31;;;23.83
77728;BMP280;68312;53.502;10.030;2023-07-30T11:34:24;100990.00;;;23.52
77728;BMP280;68312;53.502;10.030;2023-07-30T11:36:51;100982.81;;;23.45
77728;BMP280;68312;53.502;10.030;2023-07-30T11:39:18;100977.88;;;23.44
77728;BMP280;68312;53.502;10.030;2023-07-30T11:41:44;100975.19;;;23.44
77728;BMP280;68312;53.502;10.030;2023-07-30T11:44:30;100979.34;;;22.65
77728;BMP280;68312;53.502;10.030;2023-07-30T11:47:03;100977.00;;;22.74
77728;BMP280;68312;53.502;10.030;2023-07-30T11:49:30;100963.31;;;22.62
77728;BMP280;68312;53.502;10.030;2023-07-30T11:54:36;100972.13;;;23.05
77728;BMP280;68312;53.502;10.030;2023-07-30T11:57:02;100962.19;;;24.01
77728;BMP280;68312;53.502;10.030;2023-07-30T11:59:28;100966.56;;;24.18
77728;BMP280;68312;53.502;10.030;2023-07-30T12:01:57;100958.59;;;25.01
77728;BMP280;68312;53.502;10.030;2023-07-30T12:04:22;100963.50;;;25.48
77728;BMP280;68312;53.502;10.030;2023-07-30T12:06:51;100959.22;;;24.44
77728;BMP280;68312;53.502;10.030;2023-07-30T12:09:23;100965.81;;;23.58
77728;BMP280;68312;53.502;10.030;2023-07-30T12:12:08;100957.81;;;22.79
77728;BMP280;68312;53.502;10.030;2023-07-30T12:17:14;100961.13;;;23.95
77728;BMP280;68312;53.502;10.030;2023-07-30T12:19:41;100947.94;;;24.04
77728;BMP280;68312;53.502;10.030;2023-07-30T12:22:06;100952.56;;;24.03
77728;BMP280;68312;53.502;10.030;2023-07-30T12:24:32;100943.38;;;23.75
77728;BMP280;68312;53.502;10.030;2023-07-30T12:26:57;100944.31;;;23.91
77728;BMP280;68312;53.502;10.030;2023-07-30T12:29:24;100932.44;;;24.15
77728;BMP280;68312;53.502;10.030;2023-07-30T12:31:49;100936.25;;;24.17
77728;BMP280;68312;53.502;10.030;2023-07-30T12:34:18;100935.41;;;24.24
77728;BMP280;68312;53.502;10.030;2023-07-30T12:36:45;100923.75;;;24.98
77728;BMP280;68312;53.502;10.030;2023-07-30T12:39:10;100920.00;;;25.30
77728;BMP280;68312;53.502;10.030;2023-07-30T12:41:36;100912.94;;;25.74
77728;BMP280;68312;53.502;10.030;2023-07-30T12:44:01;100901.59;;;25.98
77728;BMP280;68312;53.502;10.030;2023-07-30T12:46:30;100896.69;;;25.93
77728;BMP280;68312;53.502;10.030;2023-07-30T12:48:58;100906.88;;;24.97
77728;BMP280;68312;53.502;10.030;2023-07-30T12:51:28;100906.38;;;24.38
77728;BMP280;68312;53.502;10.030;2023-07-30T12:53:54;100908.72;;;24.58
77728;BMP280;68312;53.502;10.030;2023-07-30T12:56:19;100909.91;;;24.35
77728;BMP280;68312;53.502;10.030;2023-07-30T12:59:00;100908.38;;;23.82
77728;BMP280;68312;53.502;10.030;2023-07-30T13:01:25;100908.31;;;23.30
77728;BMP280;68312;53.502;10.030;2023-07-30T13:03:51;100916.22;;;23.40
77728;BMP280;68312;53.502;10.030;2023-07-30T13:06:20;100916.53;;;23.13
77728;BMP280;68312;53.502;10.030;2023-07-30T13:08:46;100932.16;;;22.31
77728;BMP280;68312;53.502;10.030;2023-07-30T13:11:12;100944.63;;;21.91
77728;BMP280;68312;53.502;10.030;2023-07-30T13:13:37;100968.84;;;21.40
77728;BMP280;68312;53.502;10.030;2023-07-30T13:16:03;101081.50;;;20.06
77728;BMP280;68312;53.502;10.030;2023-07-30T13:18:29;101109.47;;;17.01
77728;BMP280;68312;53.502;10.030;2023-07-30T13:20:54;101097.28;;;15.68
77728;BMP280;68312;53.502;10.030;2023-07-30T13:23:20;101110.88;;;15.24
77728;BMP280;68312;53.502;10.030;2023-07-30T13:25:45;101136.69;;;15.15
77728;BMP280;68312;53.502;10.030;2023-07-30T13:28:11;101135.63;;;15.04
77728;BMP280;68312;53.502;10.030;2023-07-30T13:30:36;101131.09;;;15.05
77728;BMP280;68312;53.502;10.030;2023-07-30T13:33:02;101121.94;;;15.14
77728;BMP280;68312;53.502;10.030;2023-07-30T13:35:27;101128.00;;;15.15
77728;BMP280;68312;53.502;10.030;2023-07-30T13:37:53;101131.66;;;14.98
77728;BMP280;68312;53.502;10.030;2023-07-30T13:40:19;101143.38;;;14.97
77728;BMP280;68312;53.502;10.030;2023-07-30T13:42:44;101124.28;;;14.92
77728;BMP280;68312;53.502;10.030;2023-07-30T13:45:10;101134.81;;;14.89
77728;BMP280;68312;53.502;10.030;2023-07-30T13:47:35;101142.81;;;14.92
77728;BMP280;68312;53.502;10.030;2023-07-30T13:50:00;101131.34;;;15.00
77728;BMP280;68312;53.502;10.030;2023-07-30T13:52:26;101134.19;;;15.07
77728;BMP280;68312;53.502;10.030;2023-07-30T13:54:51;101129.19;;;15.29
77728;BMP280;68312;53.502;10.030;2023-07-30T13:57:24;101126.38;;;15.37
77728;BMP280;68312;53.502;10.030;2023-07-30T13:59:50;101117.88;;;15.44
77728;BMP280;68312;53.502;10.030;2023-07-30T14:02:17;101105.47;;;15.48
77728;BMP280;68312;53.502;10.030;2023-07-30T14:04:42;101102.44;;;15.61